Aérodrome :
LOGIN :

S'inscrire | Disclaimer

   EN    FR    IT 

 










Légende :    VFR   VFR Marginal   IFR   IFR Intensif   IFR Très Intensif
Visi : 
Plafond : 
>= 8 km
>= 3000ft
5 à 8 km
1000 à 3000 ft
1500m à 5 km
500 à 1000 ft
800 à 1500m
200 à 500 ft
< 800m
< 200 ft
Symboles :   Orages  Brouillard  Fortes neiges  Fortes précipitations  Vent > 20 kt
SIGMETs :   Divers  Orages  Givrage  Turbulence  Onde Orograph.  Cendres Volcan.






- Altitude de l'aérodrome : 1325 ft
- Code IATA : EBU


LFMH - St-Etienne Boutheon

DERNIER METAR :
  • 271930Z AUTO 33010KT 9999 FEW058 07/01 Q1014 NOSIG

METARs EXPIRÉS :
  • 271900Z AUTO 34009KT CAVOK 08/01 Q1013 NOSIG
  • 271830Z AUTO 33012KT 9999 SCT043 09/03 Q1011 NOSIG
  • 271800Z AUTO 32007KT 9999 FEW046 09/03 Q1010 TEMPO 33015G30KT FEW030TCU
  • 271730Z AUTO 34009KT 310V020 9999 FEW015 SCT056 10/04 Q1009 TEMPO 33015G30KT FEW030TCU
  • 271700Z AUTO 30014KT 270V330 9999 4600 RA FEW034/// BKN050/// BKN064/// ///TCU 11/06 Q1008 TEMPO 33015G30KT BECMG NSW

TAF TAF LFMH
Valide du 27 à 15h jusqu'au 28 à 15h UTC


271400Z 2715/2815 21010KT 9999 SCT050
BECMG 2715/2717 33011KT
TEMPO 2716/2719 33015G30KT FEW030TCU
BECMG 2800/2802 17004KT
ATIS : +33 4 77 36 17 51



MET'MAP, la Météo Aéronautique d'un coup d'oeil ! - Copyright ORBIFLY Décembre 2007 - Disclaimer

ORBIFLY MET'MAP TEAM :

Programmation & Développement : Alexandra Zaïnal
Sur une idée originale de : Baudouin d'Aumeries
Assistance à la programmation : Marc-Olivier Méhu
Soutien technique & logistique : Manuel Goepfert

Contact : metmap@orbifly.com




SOURCES & CREDITS :

   NOAA